createdAt,value
2017-08-26T00:02:27.011Z,16.20
2017-08-26T00:04:56.098Z,16.20
2017-08-26T00:07:24.441Z,16.10
2017-08-26T00:09:52.743Z,16.10
2017-08-26T00:12:21.039Z,16.10
2017-08-26T00:14:49.382Z,16.10
2017-08-26T00:17:17.679Z,16.00
2017-08-26T00:19:45.978Z,16.00
2017-08-26T00:22:14.303Z,16.10
2017-08-26T00:24:42.633Z,16.10
2017-08-26T00:27:10.954Z,16.10
2017-08-26T00:29:39.272Z,16.20
2017-08-26T00:32:07.606Z,16.20
2017-08-26T00:34:35.906Z,16.20
2017-08-26T00:37:04.194Z,16.20
2017-08-26T00:39:32.511Z,16.20
2017-08-26T00:42:00.828Z,16.20
2017-08-26T00:44:29.144Z,16.20
2017-08-26T00:46:57.449Z,16.20
2017-08-26T00:49:25.791Z,16.10
2017-08-26T00:51:54.086Z,16.10
2017-08-26T00:54:22.379Z,16.10
2017-08-26T00:56:50.702Z,16.00
2017-08-26T00:59:19.095Z,16.00
2017-08-26T01:01:47.386Z,16.00
2017-08-26T01:04:15.679Z,16.00
2017-08-26T01:06:44.005Z,15.90
2017-08-26T01:09:12.294Z,15.90
2017-08-26T01:11:40.626Z,15.80
2017-08-26T01:14:08.991Z,15.80
2017-08-26T01:16:37.346Z,15.70
2017-08-26T01:19:05.687Z,15.70
2017-08-26T01:21:34.030Z,15.70
2017-08-26T01:24:02.397Z,15.60
2017-08-26T01:26:30.694Z,15.60
2017-08-26T01:28:59.770Z,15.60
2017-08-26T01:31:28.122Z,15.50
2017-08-26T01:33:56.428Z,15.60
2017-08-26T01:36:24.754Z,15.60
2017-08-26T01:38:53.058Z,15.70
2017-08-26T01:41:21.386Z,15.70
2017-08-26T01:43:49.695Z,15.70
2017-08-26T01:46:18.023Z,15.80
2017-08-26T01:48:46.375Z,15.90
2017-08-26T01:51:14.678Z,16.00
2017-08-26T01:53:43.037Z,16.00
2017-08-26T01:56:11.332Z,16.10
2017-08-26T01:58:40.419Z,16.20
2017-08-26T02:01:08.779Z,16.10
2017-08-26T02:03:37.123Z,16.20
2017-08-26T02:06:05.419Z,16.20
2017-08-26T02:08:33.756Z,16.10
2017-08-26T02:11:02.099Z,16.10
2017-08-26T02:13:31.191Z,16.00
2017-08-26T02:15:59.506Z,16.00
2017-08-26T02:18:27.803Z,16.00
2017-08-26T02:20:56.155Z,16.00
2017-08-26T02:23:24.459Z,16.00
2017-08-26T02:25:52.759Z,16.00
2017-08-26T02:28:21.127Z,16.00
2017-08-26T02:30:49.434Z,15.90
2017-08-26T02:33:17.775Z,15.90
2017-08-26T02:35:46.082Z,15.90
2017-08-26T02:38:14.395Z,15.90
2017-08-26T02:40:42.733Z,15.90
2017-08-26T02:43:11.032Z,15.90
2017-08-26T02:45:39.368Z,15.90
2017-08-26T02:48:07.661Z,15.90
2017-08-26T02:50:36.019Z,15.80
2017-08-26T02:53:04.315Z,15.70
2017-08-26T02:55:32.634Z,15.70
2017-08-26T02:58:00.972Z,15.70
2017-08-26T03:00:29.300Z,15.70
2017-08-26T03:02:57.586Z,15.70
2017-08-26T03:05:25.931Z,15.60
2017-08-26T03:07:54.198Z,15.60
2017-08-26T03:10:22.539Z,15.60
2017-08-26T03:12:50.851Z,15.60
2017-08-26T03:15:19.144Z,15.60
2017-08-26T03:17:47.480Z,15.60
2017-08-26T03:20:15.787Z,15.60
2017-08-26T03:22:44.083Z,15.60
2017-08-26T03:25:12.431Z,15.70
2017-08-26T03:27:41.500Z,15.70
2017-08-26T03:30:09.801Z,15.70
2017-08-26T03:32:38.131Z,15.70
2017-08-26T03:35:06.464Z,15.80
2017-08-26T03:37:34.799Z,15.80
2017-08-26T03:40:03.107Z,15.90
2017-08-26T03:42:31.401Z,16.00
2017-08-26T03:45:00.507Z,16.10
2017-08-26T03:47:28.810Z,16.00
2017-08-26T03:49:57.116Z,16.10
2017-08-26T03:52:25.445Z,16.20
2017-08-26T03:54:53.743Z,16.20
2017-08-26T03:57:22.074Z,16.20
2017-08-26T03:59:50.418Z,16.30
2017-08-26T04:02:18.763Z,16.30
2017-08-26T04:04:47.071Z,16.40
2017-08-26T04:07:15.415Z,16.40
2017-08-26T04:09:43.778Z,16.40
2017-08-26T04:12:12.125Z,16.40
2017-08-26T04:14:40.426Z,16.40
2017-08-26T04:17:08.777Z,16.40
2017-08-26T04:19:37.091Z,16.40
2017-08-26T04:22:05.430Z,16.40
2017-08-26T04:24:33.735Z,16.40
2017-08-26T04:27:02.076Z,16.40
2017-08-26T04:29:30.421Z,16.50
2017-08-26T04:31:58.726Z,16.40
2017-08-26T04:34:27.072Z,16.50
2017-08-26T04:36:55.367Z,16.50
2017-08-26T04:39:23.676Z,16.60
2017-08-26T04:41:52.043Z,16.60
2017-08-26T04:44:20.347Z,16.70
2017-08-26T04:46:48.659Z,16.70
2017-08-26T04:49:17.003Z,16.80
2017-08-26T04:51:45.341Z,16.80
2017-08-26T04:54:13.683Z,16.90
2017-08-26T04:56:41.991Z,16.90
2017-08-26T04:59:10.375Z,16.90
2017-08-26T05:01:38.672Z,16.80
2017-08-26T05:04:06.967Z,16.80
2017-08-26T05:06:35.295Z,16.80
2017-08-26T05:09:03.585Z,16.90
2017-08-26T05:11:31.878Z,16.90
2017-08-26T05:14:00.965Z,17.00
2017-08-26T05:16:29.255Z,16.90
2017-08-26T05:18:57.600Z,17.00
2017-08-26T05:21:25.898Z,16.90
2017-08-26T05:23:54.423Z,17.00
2017-08-26T05:26:22.743Z,17.10
2017-08-26T05:28:51.046Z,17.20
2017-08-26T05:31:19.386Z,17.30
2017-08-26T05:33:47.681Z,17.50
2017-08-26T05:36:15.993Z,17.60
2017-08-26T05:38:44.322Z,17.70
2017-08-26T05:41:12.627Z,17.80
2017-08-26T05:43:40.936Z,17.90
2017-08-26T05:46:09.259Z,18.00
2017-08-26T05:48:38.339Z,18.10
2017-08-26T05:51:06.679Z,18.10
2017-08-26T05:53:35.014Z,18.20
2017-08-26T05:56:03.310Z,18.30
2017-08-26T05:58:31.648Z,18.40
2017-08-26T06:00:59.992Z,18.50
2017-08-26T06:03:28.318Z,18.50
2017-08-26T06:05:56.639Z,18.50
2017-08-26T06:08:24.991Z,18.70
2017-08-26T06:10:53.296Z,18.80
2017-08-26T06:13:21.622Z,18.90
2017-08-26T06:15:49.962Z,18.90
2017-08-26T06:18:18.278Z,19.10
2017-08-26T06:20:46.610Z,19.10
2017-08-26T06:23:14.925Z,19.20
2017-08-26T06:25:43.251Z,19.30
2017-08-26T06:28:11.595Z,19.40
2017-08-26T06:30:39.931Z,19.50
2017-08-26T06:33:08.294Z,19.70
2017-08-26T06:35:36.606Z,19.80
2017-08-26T06:38:04.952Z,19.90
2017-08-26T06:40:33.266Z,20.00
2017-08-26T06:43:01.667Z,20.10
2017-08-26T06:45:30.052Z,20.10
2017-08-26T06:47:58.361Z,20.20
2017-08-26T06:50:26.693Z,20.30
2017-08-26T06:52:55.035Z,20.30
2017-08-26T06:55:23.398Z,20.50
2017-08-26T06:57:51.734Z,20.50
2017-08-26T07:00:20.062Z,20.60
2017-08-26T07:02:48.351Z,20.80
2017-08-26T07:05:16.755Z,20.70
2017-08-26T07:07:45.157Z,20.90
2017-08-26T07:10:13.504Z,21.00
2017-08-26T07:12:41.889Z,21.10
2017-08-26T07:15:10.292Z,21.30
2017-08-26T07:17:38.614Z,21.40
2017-08-26T07:20:07.050Z,21.40
2017-08-26T07:22:35.398Z,21.30
2017-08-26T07:25:03.720Z,21.30
2017-08-26T07:27:32.057Z,21.20
2017-08-26T07:30:00.368Z,21.20
2017-08-26T07:32:28.836Z,21.30
2017-08-26T07:34:57.229Z,21.30
2017-08-26T07:37:25.648Z,21.20
2017-08-26T07:39:54.043Z,21.30
2017-08-26T07:42:22.415Z,21.30
2017-08-26T07:44:50.777Z,21.20
2017-08-26T07:47:19.181Z,21.20
2017-08-26T07:49:47.529Z,21.30
2017-08-26T07:52:15.892Z,21.40
2017-08-26T07:54:44.254Z,21.50
2017-08-26T07:57:12.692Z,21.60
2017-08-26T07:59:41.156Z,21.80
2017-08-26T08:02:09.463Z,21.90
2017-08-26T08:04:37.780Z,22.10
2017-08-26T08:07:06.118Z,22.40
2017-08-26T08:09:34.465Z,22.50
2017-08-26T08:12:02.804Z,22.60
2017-08-26T08:14:31.169Z,22.70
2017-08-26T08:16:59.467Z,22.80
2017-08-26T08:19:27.781Z,22.80
2017-08-26T08:21:56.166Z,23.10
2017-08-26T08:24:24.474Z,23.20
2017-08-26T08:26:52.795Z,23.30
2017-08-26T08:29:21.932Z,23.40
2017-08-26T08:31:50.238Z,23.40
2017-08-26T08:34:18.583Z,23.20
2017-08-26T08:36:46.926Z,23.00
2017-08-26T08:39:15.227Z,23.00
2017-08-26T08:41:43.539Z,23.00
2017-08-26T08:44:11.904Z,23.00
2017-08-26T08:46:40.242Z,23.10
2017-08-26T08:49:08.550Z,23.10
2017-08-26T08:51:36.883Z,23.10
2017-08-26T08:54:05.189Z,23.10
2017-08-26T08:56:33.525Z,23.30
2017-08-26T08:59:01.865Z,23.20
2017-08-26T09:01:30.175Z,23.20
2017-08-26T09:03:58.479Z,23.30
2017-08-26T09:06:26.823Z,23.40
2017-08-26T09:08:55.172Z,23.40
2017-08-26T09:11:23.466Z,23.40
2017-08-26T09:13:51.759Z,23.50
2017-08-26T09:16:20.104Z,23.80
2017-08-26T09:18:48.398Z,24.30
2017-08-26T09:21:16.818Z,24.50
2017-08-26T09:23:45.194Z,24.60
2017-08-26T09:26:13.536Z,24.70
2017-08-26T09:28:42.248Z,24.70
2017-08-26T09:31:10.556Z,24.60
2017-08-26T09:33:38.860Z,24.50
2017-08-26T09:36:07.242Z,24.40
2017-08-26T09:38:35.602Z,24.50
2017-08-26T09:41:03.909Z,24.50
2017-08-26T09:43:32.196Z,24.50
2017-08-26T09:46:00.552Z,24.50
2017-08-26T09:48:28.851Z,24.40
2017-08-26T09:50:57.194Z,24.40
2017-08-26T09:53:25.518Z,24.40
2017-08-26T09:55:53.882Z,24.40
2017-08-26T09:58:22.206Z,24.50
2017-08-26T10:00:50.517Z,24.70
2017-08-26T10:03:18.860Z,24.80
2017-08-26T10:05:47.179Z,25.00
2017-08-26T10:08:15.518Z,25.30
2017-08-26T10:10:43.872Z,25.50
2017-08-26T10:13:12.182Z,25.60
2017-08-26T10:15:40.527Z,25.70
2017-08-26T10:18:08.839Z,25.80
2017-08-26T10:20:37.187Z,25.90
2017-08-26T10:23:05.557Z,25.90
2017-08-26T10:25:33.856Z,25.90
2017-08-26T10:28:02.159Z,25.80
2017-08-26T10:30:30.515Z,25.70
2017-08-26T10:32:58.819Z,25.70
2017-08-26T10:35:27.170Z,25.60
2017-08-26T10:37:56.071Z,25.60
2017-08-26T10:40:27.345Z,25.50
2017-08-26T10:42:56.555Z,25.40
2017-08-26T10:45:24.910Z,25.40
2017-08-26T10:47:53.207Z,25.50
2017-08-26T10:50:21.509Z,25.60
2017-08-26T10:52:49.839Z,25.60
2017-08-26T10:55:18.147Z,25.60
2017-08-26T10:57:46.499Z,25.50
2017-08-26T11:00:14.790Z,25.40
2017-08-26T11:02:43.096Z,25.40
2017-08-26T11:05:11.419Z,25.40
2017-08-26T11:07:39.763Z,25.50
2017-08-26T11:10:08.059Z,25.50
2017-08-26T11:12:36.445Z,25.60
2017-08-26T11:15:04.760Z,25.70
2017-08-26T11:17:33.090Z,25.70
2017-08-26T11:20:01.438Z,25.60
2017-08-26T11:22:30.506Z,25.10
2017-08-26T11:24:58.821Z,25.10
2017-08-26T11:27:27.189Z,25.10
2017-08-26T11:29:55.499Z,25.20
2017-08-26T11:32:23.882Z,25.10
2017-08-26T11:34:52.203Z,25.10
2017-08-26T11:37:20.499Z,25.10
2017-08-26T11:39:48.851Z,25.10
2017-08-26T11:42:17.460Z,25.20
2017-08-26T11:44:45.790Z,25.30
2017-08-26T11:47:14.091Z,25.50
2017-08-26T11:49:43.204Z,25.50
2017-08-26T11:52:12.235Z,25.40
2017-08-26T11:54:40.608Z,25.40
2017-08-26T11:57:08.945Z,25.50
2017-08-26T11:59:37.295Z,25.70
2017-08-26T12:02:05.605Z,26.00
2017-08-26T12:04:33.911Z,26.30
2017-08-26T12:07:02.259Z,26.60
2017-08-26T12:09:30.581Z,26.70
2017-08-26T12:11:58.946Z,26.80
2017-08-26T12:14:27.251Z,26.90
2017-08-26T12:16:55.647Z,27.20
2017-08-26T12:19:23.946Z,27.40
2017-08-26T12:21:52.270Z,27.50
2017-08-26T12:24:20.611Z,27.80
2017-08-26T12:26:48.935Z,28.00
2017-08-26T12:29:17.379Z,28.20
2017-08-26T12:31:45.782Z,28.30
2017-08-26T12:34:14.074Z,28.20
2017-08-26T12:36:42.428Z,28.10
2017-08-26T12:39:10.938Z,28.20
2017-08-26T12:41:39.308Z,28.40
2017-08-26T12:44:07.679Z,28.60
2017-08-26T12:46:36.031Z,28.70
2017-08-26T12:49:04.613Z,28.40
2017-08-26T12:51:33.035Z,28.40
2017-08-26T12:54:01.596Z,28.40
2017-08-26T12:56:30.059Z,28.20
2017-08-26T12:58:58.362Z,28.00
2017-08-26T13:01:26.835Z,28.00
2017-08-26T13:03:55.580Z,28.00
2017-08-26T13:06:23.926Z,28.10
2017-08-26T13:08:52.319Z,28.10
2017-08-26T13:11:20.690Z,28.20
2017-08-26T13:13:49.528Z,28.40
2017-08-26T13:16:17.871Z,28.50
2017-08-26T13:18:46.236Z,28.50
2017-08-26T13:21:14.555Z,28.70
2017-08-26T13:23:42.855Z,29.00
2017-08-26T13:26:11.203Z,29.20
2017-08-26T13:28:39.585Z,29.40
2017-08-26T13:31:07.880Z,29.40
2017-08-26T13:33:37.001Z,29.00
2017-08-26T13:36:06.110Z,28.70
2017-08-26T13:38:34.482Z,28.70
2017-08-26T13:41:02.845Z,28.60
2017-08-26T13:43:31.152Z,28.60
2017-08-26T13:45:59.492Z,28.80
2017-08-26T13:48:27.806Z,28.80
2017-08-26T13:50:56.163Z,28.90
2017-08-26T13:53:24.647Z,28.80
2017-08-26T13:55:53.005Z,29.00
2017-08-26T13:58:21.367Z,29.20
2017-08-26T14:00:49.663Z,29.40
2017-08-26T14:03:17.969Z,29.20
2017-08-26T14:05:46.310Z,29.10
2017-08-26T14:08:14.667Z,29.10
2017-08-26T14:10:42.978Z,29.10
2017-08-26T14:13:11.282Z,29.10
2017-08-26T14:15:39.654Z,29.20
2017-08-26T14:18:07.948Z,29.20
2017-08-26T14:20:36.278Z,29.00
2017-08-26T14:23:04.714Z,29.00
2017-08-26T14:25:33.049Z,29.00
2017-08-26T14:28:01.400Z,29.00
2017-08-26T14:30:29.710Z,28.90
2017-08-26T14:32:58.259Z,28.80
2017-08-26T14:35:26.698Z,28.70
2017-08-26T14:37:55.112Z,28.60
2017-08-26T14:40:23.588Z,28.50
2017-08-26T14:42:51.975Z,28.20
2017-08-26T14:45:20.611Z,28.10
2017-08-26T14:47:49.014Z,28.10
2017-08-26T14:50:17.462Z,27.80
2017-08-26T14:52:45.938Z,27.40
2017-08-26T14:55:14.950Z,27.30
2017-08-26T14:57:43.376Z,27.40
2017-08-26T15:00:11.736Z,27.30
2017-08-26T15:02:40.164Z,27.40
2017-08-26T15:05:08.541Z,27.50
2017-08-26T15:07:36.962Z,27.50
2017-08-26T15:10:05.357Z,27.60
2017-08-26T15:12:33.738Z,27.70
2017-08-26T15:15:02.060Z,27.70
2017-08-26T15:17:30.368Z,27.60
2017-08-26T15:19:58.713Z,27.50
2017-08-26T15:22:27.015Z,27.50
2017-08-26T15:24:55.390Z,27.50
2017-08-26T15:27:23.707Z,27.50
2017-08-26T15:29:52.000Z,27.50
2017-08-26T15:32:20.344Z,27.70
2017-08-26T15:34:48.663Z,27.90
2017-08-26T15:37:16.957Z,28.10
2017-08-26T15:39:45.292Z,28.20
2017-08-26T15:42:13.632Z,28.20
2017-08-26T15:44:42.074Z,28.20
2017-08-26T15:47:10.554Z,28.10
2017-08-26T15:49:38.902Z,28.40
2017-08-26T15:52:07.284Z,28.50
2017-08-26T15:54:35.621Z,28.60
2017-08-26T15:57:04.028Z,28.70
2017-08-26T15:59:32.422Z,28.70
2017-08-26T16:02:00.806Z,28.70
2017-08-26T16:04:29.273Z,28.80
2017-08-26T16:06:57.907Z,28.80
2017-08-26T16:09:26.216Z,28.90
2017-08-26T16:11:54.617Z,28.80
2017-08-26T16:14:23.005Z,28.90
2017-08-26T16:16:51.397Z,28.80
2017-08-26T16:19:19.821Z,28.60
2017-08-26T16:21:48.216Z,28.40
2017-08-26T16:24:16.698Z,28.20
2017-08-26T16:26:45.030Z,27.80
2017-08-26T16:29:13.636Z,27.40
2017-08-26T16:31:42.092Z,27.10
2017-08-26T16:34:10.406Z,26.90
2017-08-26T16:36:38.766Z,26.70
2017-08-26T16:39:07.156Z,26.60
2017-08-26T16:41:35.471Z,26.50
2017-08-26T16:44:03.882Z,26.50
2017-08-26T16:46:32.264Z,26.50
2017-08-26T16:49:00.640Z,26.40
2017-08-26T16:51:28.985Z,26.30
2017-08-26T16:53:57.455Z,26.30
2017-08-26T16:56:25.791Z,26.10
2017-08-26T16:58:54.152Z,26.00
2017-08-26T17:01:22.536Z,25.90
2017-08-26T17:03:50.886Z,25.90
2017-08-26T17:06:19.211Z,25.80
2017-08-26T17:08:47.576Z,25.80
2017-08-26T17:11:16.071Z,25.70
2017-08-26T17:13:44.440Z,25.70
2017-08-26T17:16:12.878Z,25.60
2017-08-26T17:18:41.660Z,25.60
2017-08-26T17:21:10.266Z,25.60
2017-08-26T17:23:38.685Z,25.50
2017-08-26T17:26:07.032Z,25.50
2017-08-26T17:28:35.384Z,25.40
2017-08-26T17:31:03.733Z,25.30
2017-08-26T17:33:32.208Z,25.30
2017-08-26T17:36:00.584Z,25.20
2017-08-26T17:38:28.954Z,25.10
2017-08-26T17:40:57.324Z,25.10
2017-08-26T17:43:25.650Z,24.90
2017-08-26T17:45:53.968Z,24.80
2017-08-26T17:48:22.324Z,24.70
2017-08-26T17:50:50.620Z,24.60
2017-08-26T17:53:18.962Z,24.50
2017-08-26T17:55:47.275Z,24.40
2017-08-26T17:58:15.635Z,24.40
2017-08-26T18:00:43.962Z,24.40
2017-08-26T18:03:12.294Z,24.30
2017-08-26T18:05:40.677Z,24.30
2017-08-26T18:08:09.012Z,24.20
2017-08-26T18:10:37.321Z,24.20
2017-08-26T18:13:05.619Z,24.20
2017-08-26T18:15:33.992Z,24.10
2017-08-26T18:18:02.434Z,24.10
2017-08-26T18:20:30.784Z,24.10
2017-08-26T18:22:59.123Z,24.10
2017-08-26T18:25:27.421Z,24.10
2017-08-26T18:27:55.719Z,24.10
2017-08-26T18:30:24.131Z,24.10
2017-08-26T18:32:52.464Z,24.00
2017-08-26T18:35:20.780Z,24.00
2017-08-26T18:37:49.119Z,23.90
2017-08-26T18:40:17.471Z,23.90
2017-08-26T18:42:45.862Z,23.90
2017-08-26T18:45:14.248Z,23.80
2017-08-26T18:47:42.579Z,23.80
2017-08-26T18:50:10.977Z,23.70
2017-08-26T18:52:39.351Z,23.70
2017-08-26T18:55:07.697Z,23.50
2017-08-26T18:57:36.175Z,23.30
2017-08-26T19:00:04.555Z,22.50
2017-08-26T19:02:32.956Z,21.80
2017-08-26T19:05:01.367Z,21.30
2017-08-26T19:07:29.801Z,21.10
2017-08-26T19:09:58.208Z,20.80
2017-08-26T19:12:26.556Z,20.80
2017-08-26T19:14:54.951Z,20.70
2017-08-26T19:17:23.308Z,20.70
2017-08-26T19:19:51.731Z,20.60
2017-08-26T19:22:20.081Z,20.60
2017-08-26T19:24:48.892Z,20.60
2017-08-26T19:27:17.408Z,20.50
2017-08-26T19:29:45.834Z,20.40
2017-08-26T19:32:14.207Z,20.40
2017-08-26T19:34:42.529Z,20.50
2017-08-26T19:37:11.427Z,20.50
2017-08-26T19:39:39.931Z,20.40
2017-08-26T19:42:08.310Z,20.50
2017-08-26T19:44:36.830Z,20.40
2017-08-26T19:47:05.180Z,20.40
2017-08-26T19:49:33.543Z,20.40
2017-08-26T19:52:01.866Z,20.50
2017-08-26T19:54:30.215Z,20.50
2017-08-26T19:56:58.574Z,20.50
2017-08-26T19:59:26.916Z,20.50
2017-08-26T20:01:55.231Z,20.50
2017-08-26T20:04:23.562Z,20.60
2017-08-26T20:06:51.924Z,20.60
2017-08-26T20:09:20.271Z,20.60
2017-08-26T20:11:48.679Z,20.60
2017-08-26T20:14:16.988Z,20.50
2017-08-26T20:16:45.496Z,20.40
2017-08-26T20:19:13.799Z,20.50
2017-08-26T20:21:42.100Z,20.50
2017-08-26T20:24:10.529Z,20.50
2017-08-26T20:26:38.820Z,20.50
2017-08-26T20:29:07.151Z,20.50
2017-08-26T20:31:35.454Z,20.60
2017-08-26T20:34:03.807Z,20.60
2017-08-26T20:36:32.120Z,20.60
2017-08-26T20:39:00.450Z,20.60
2017-08-26T20:41:28.827Z,20.60
2017-08-26T20:43:57.306Z,20.60
2017-08-26T20:46:25.625Z,20.60
2017-08-26T20:48:53.935Z,20.70
2017-08-26T20:51:22.285Z,20.70
2017-08-26T20:53:50.639Z,20.70
2017-08-26T20:56:19.025Z,20.60
2017-08-26T20:58:47.355Z,20.70
2017-08-26T21:01:15.738Z,20.60
2017-08-26T21:03:44.053Z,20.60
2017-08-26T21:06:12.386Z,20.50
2017-08-26T21:08:40.731Z,20.40
2017-08-26T21:11:09.096Z,20.40
2017-08-26T21:13:37.435Z,20.30
2017-08-26T21:16:05.739Z,20.20
2017-08-26T21:18:34.084Z,20.20
2017-08-26T21:21:02.408Z,20.10
2017-08-26T21:23:30.748Z,20.10
2017-08-26T21:25:59.088Z,20.00
2017-08-26T21:28:27.440Z,19.90
2017-08-26T21:30:55.826Z,19.90
2017-08-26T21:33:24.155Z,19.90
2017-08-26T21:35:52.490Z,19.80
2017-08-26T21:38:20.787Z,19.80
2017-08-26T21:40:49.162Z,19.80
2017-08-26T21:43:17.478Z,19.80
2017-08-26T21:45:45.967Z,19.80
2017-08-26T21:48:14.534Z,19.80
2017-08-26T21:50:42.837Z,19.80
2017-08-26T21:53:11.958Z,19.70
2017-08-26T21:55:40.280Z,19.70
2017-08-26T21:58:08.623Z,19.70
2017-08-26T22:00:36.915Z,19.70
2017-08-26T22:03:05.262Z,19.60
2017-08-26T22:05:33.612Z,19.50
2017-08-26T22:08:01.948Z,19.40
2017-08-26T22:10:30.266Z,19.40
2017-08-26T22:12:58.710Z,19.40
2017-08-26T22:15:27.044Z,19.30
2017-08-26T22:17:55.398Z,19.30
2017-08-26T22:20:23.776Z,19.30
2017-08-26T22:22:52.113Z,19.20
2017-08-26T22:25:20.446Z,19.20
2017-08-26T22:27:48.785Z,19.20
2017-08-26T22:30:17.140Z,19.10
2017-08-26T22:32:45.464Z,19.10
2017-08-26T22:35:14.101Z,19.00
2017-08-26T22:37:42.428Z,19.00
2017-08-26T22:40:10.719Z,18.90
2017-08-26T22:42:39.035Z,18.90
2017-08-26T22:45:07.342Z,18.80
2017-08-26T22:47:35.692Z,18.80
2017-08-26T22:50:04.004Z,18.70
2017-08-26T22:52:32.344Z,18.70
2017-08-26T22:55:00.655Z,18.60
2017-08-26T22:57:28.999Z,18.60
2017-08-26T22:59:57.306Z,18.50
2017-08-26T23:02:25.652Z,18.50
2017-08-26T23:04:53.961Z,18.40
2017-08-26T23:07:22.406Z,18.40
2017-08-26T23:09:50.708Z,18.40
2017-08-26T23:12:19.008Z,18.30
2017-08-26T23:14:47.375Z,18.30
2017-08-26T23:17:15.710Z,18.20
2017-08-26T23:19:44.082Z,18.20
2017-08-26T23:22:12.394Z,18.10
2017-08-26T23:24:40.740Z,18.10
2017-08-26T23:27:09.073Z,18.00
2017-08-26T23:29:37.413Z,18.00
2017-08-26T23:32:05.723Z,17.90
2017-08-26T23:34:34.206Z,17.90
2017-08-26T23:37:02.499Z,17.90
2017-08-26T23:39:30.801Z,17.80
2017-08-26T23:41:59.560Z,17.80
2017-08-26T23:44:27.871Z,17.70
2017-08-26T23:46:56.244Z,17.70
2017-08-26T23:49:24.560Z,17.70
2017-08-26T23:51:52.899Z,17.70
2017-08-26T23:54:21.209Z,17.60
2017-08-26T23:56:49.647Z,17.70
2017-08-26T23:59:17.971Z,17.60
